createdAt,value
2022-10-24T00:04:01.859Z,1007.537415
2022-10-24T02:26:11.598Z,1006.422241
2022-10-24T02:34:43.554Z,1006.295105
2022-10-24T02:40:55.593Z,1006.28009
2022-10-24T02:41:55.582Z,1006.387756
2022-10-24T02:42:52.054Z,1006.307068
2022-10-24T02:43:50.005Z,1006.362854
2022-10-24T02:45:43.327Z,1006.337097
2022-10-24T02:46:36.071Z,1006.457092
2022-10-24T02:47:34.522Z,1006.434875
2022-10-24T02:48:29.291Z,1006.446228
2022-10-24T02:49:33.041Z,1006.35321
2022-10-24T02:51:34.503Z,1006.523376
2022-10-24T02:52:33.718Z,1006.417114
2022-10-24T02:53:28.034Z,1006.500732
2022-10-24T02:54:27.207Z,1006.476196
2022-10-24T02:55:20.175Z,1006.53241
2022-10-24T02:55:33.579Z,1006.504395
2022-10-24T02:56:35.296Z,1006.500061
2022-10-24T02:57:27.793Z,1006.453003
2022-10-24T02:58:23.190Z,1006.552551
2022-10-24T02:59:19.410Z,1006.528748
2022-10-24T03:00:12.888Z,1006.593018
2022-10-24T03:01:12.073Z,1006.545471
2022-10-24T03:02:15.470Z,1006.446899
2022-10-24T03:03:14.633Z,1006.392151
2022-10-24T03:04:04.687Z,1006.426819
2022-10-24T03:05:57.671Z,1006.449585
2022-10-24T03:06:56.070Z,1006.488586
2022-10-24T03:07:47.863Z,1006.487305
2022-10-24T03:08:47.858Z,1006.398621
2022-10-24T03:09:38.183Z,1006.494324
2022-10-24T03:10:40.738Z,1006.509583
2022-10-24T03:11:33.488Z,1006.478088
2022-10-24T03:12:35.617Z,1006.478088
2022-10-24T03:13:26.234Z,1006.435364
2022-10-24T03:14:26.701Z,1006.566284
2022-10-24T03:16:16.551Z,1006.512146
2022-10-24T03:17:12.059Z,1006.500122
2022-10-24T03:18:05.532Z,1006.538513
2022-10-24T03:19:04.280Z,1006.581238
2022-10-24T03:20:50.382Z,1006.531555
2022-10-24T03:21:45.148Z,1006.539307
2022-10-24T03:22:43.522Z,1006.566284
2022-10-24T03:24:19.589Z,1006.50824
2022-10-24T03:24:31.088Z,1006.50824
2022-10-24T03:24:36.969Z,1006.50824
2022-10-24T03:24:56.323Z,1006.46283
2022-10-24T03:26:01.542Z,1006.515686
2022-10-24T03:27:03.491Z,1006.561401
2022-10-24T03:28:00.514Z,1006.62262
2022-10-24T03:29:02.654Z,1006.626526
2022-10-24T03:30:57.804Z,1006.635376
2022-10-24T03:32:02.252Z,1006.565491
2022-10-24T03:32:56.593Z,1006.518311
2022-10-24T03:34:00.794Z,1006.602844
2022-10-24T03:35:01.396Z,1006.548828
2022-10-24T03:35:56.567Z,1006.652527
2022-10-24T03:36:56.616Z,1006.65625
2022-10-24T03:37:55.712Z,1006.57074
2022-10-24T03:38:55.524Z,1006.609131
2022-10-24T03:40:57.181Z,1006.629211
2022-10-24T03:41:51.413Z,1006.63623
2022-10-24T03:42:55.116Z,1006.685913
2022-10-24T03:43:51.547Z,1006.597229
2022-10-24T03:44:51.499Z,1006.616089
2022-10-24T03:45:47.328Z,1006.584656
2022-10-24T03:46:45.283Z,1006.500427
2022-10-24T03:47:48.832Z,1006.538879
2022-10-24T03:48:43.576Z,1006.499084
2022-10-24T03:49:44.887Z,1006.586914
2022-10-24T03:50:41.540Z,1006.440308
2022-10-24T03:51:50.157Z,1006.486938
2022-10-24T03:52:51.540Z,1006.559814
2022-10-24T03:53:47.202Z,1006.586914
2022-10-24T03:54:42.899Z,1006.618652
2022-10-24T03:55:41.679Z,1006.564636
2022-10-24T03:57:25.411Z,1006.762573
2022-10-24T03:58:07.491Z,1006.624817
2022-10-24T03:59:06.715Z,1006.703491
2022-10-24T04:00:08.069Z,1006.768738
2022-10-24T04:01:03.545Z,1006.71814
2022-10-24T04:02:07.279Z,1006.760132
2022-10-24T04:03:02.229Z,1006.740051
2022-10-24T04:04:03.193Z,1006.72821
2022-10-24T04:04:59.465Z,1006.674072
2022-10-24T04:06:05.110Z,1006.669556
2022-10-24T04:07:01.435Z,1006.710754
2022-10-24T04:08:06.414Z,1006.63269
2022-10-24T04:09:02.319Z,1006.667603
2022-10-24T04:09:57.462Z,1006.710327
2022-10-24T04:10:59.882Z,1006.706421
2022-10-24T04:11:56.322Z,1006.760559
2022-10-24T04:12:58.431Z,1006.748779
2022-10-24T04:13:53.840Z,1006.713806
2022-10-24T04:16:07.445Z,1006.686829
2022-10-24T04:17:02.413Z,1006.601318
2022-10-24T04:18:03.975Z,1006.690186
2022-10-24T04:18:56.267Z,1006.663147
2022-10-24T04:20:01.580Z,1006.643005
2022-10-24T04:21:00.820Z,1006.651001
2022-10-24T04:22:05.230Z,1006.622925
2022-10-24T04:22:59.149Z,1006.600281
2022-10-24T04:23:04.423Z,1006.600281
2022-10-24T04:23:57.059Z,1006.685791
2022-10-24T04:25:54.965Z,1006.640503
2022-10-24T04:26:49.408Z,1006.752258
2022-10-24T04:27:49.336Z,1006.713806
2022-10-24T04:28:44.594Z,1006.717285
2022-10-24T04:29:44.055Z,1006.682434
2022-10-24T04:30:39.359Z,1006.655457
2022-10-24T04:31:38.063Z,1006.585632
2022-10-24T04:32:32.427Z,1006.623962
2022-10-24T04:33:32.892Z,1006.573303
2022-10-24T04:34:27.561Z,1006.595215
2022-10-24T04:35:29.890Z,1006.629822
2022-10-24T04:36:28.627Z,1006.610779
2022-10-24T04:37:28.061Z,1006.703308
2022-10-24T04:38:31.050Z,1006.614258
2022-10-24T04:38:33.615Z,1006.614258
2022-10-24T04:40:19.827Z,1006.577576
2022-10-24T04:41:01.366Z,1006.52832
2022-10-24T04:41:59.908Z,1006.556824
2022-10-24T04:43:02.848Z,1006.559814
2022-10-24T04:44:16.139Z,1006.563843
2022-10-24T04:46:12.992Z,1006.585632
2022-10-24T04:47:13.847Z,1006.673706
2022-10-24T04:48:10.380Z,1006.618652
2022-10-24T04:49:12.796Z,1006.68396
2022-10-24T04:50:10.956Z,1006.653564
2022-10-24T04:51:16.136Z,1006.73468
2022-10-24T04:52:18.347Z,1006.672607
2022-10-24T04:53:14.969Z,1006.718933
2022-10-24T04:54:13.226Z,1006.691895
2022-10-24T04:55:19.716Z,1006.64917
2022-10-24T04:56:17.760Z,1006.695374
2022-10-24T04:57:22.009Z,1006.6604
2022-10-24T04:58:18.037Z,1006.64917
2022-10-24T04:59:21.219Z,1006.656982
2022-10-24T05:00:20.446Z,1006.722351
2022-10-24T05:01:21.590Z,1006.759827
2022-10-24T05:02:17.877Z,1006.659973
2022-10-24T05:03:21.976Z,1006.705322
2022-10-24T05:04:22.013Z,1006.81781
2022-10-24T05:05:23.025Z,1006.732849
2022-10-24T05:06:21.722Z,1006.825317
2022-10-24T05:07:26.437Z,1006.786865
2022-10-24T05:08:26.238Z,1006.793884
2022-10-24T05:09:30.091Z,1006.716492
2022-10-24T05:10:25.583Z,1006.894531
2022-10-24T05:11:26.066Z,1006.912842
2022-10-24T05:12:26.579Z,1006.877502
2022-10-24T05:13:31.796Z,1006.908386
2022-10-24T05:13:36.752Z,1006.908386
2022-10-24T05:14:30.285Z,1006.858643
2022-10-24T05:15:31.293Z,1006.866089
2022-10-24T05:16:29.760Z,1006.863159
2022-10-24T05:17:33.273Z,1006.870056
2022-10-24T05:18:32.905Z,1006.827271
2022-10-24T05:19:34.591Z,1006.881287
2022-10-24T05:20:58.076Z,1006.850403
2022-10-24T05:21:53.401Z,1006.850403
2022-10-24T05:22:51.537Z,1006.850403
2022-10-24T05:23:59.526Z,1006.812012
2022-10-24T05:24:58.813Z,1006.804504
2022-10-24T05:25:54.489Z,1006.831543
2022-10-24T05:26:56.804Z,1006.803101
2022-10-24T05:27:53.012Z,1006.806335
2022-10-24T05:28:52.827Z,1006.836609
2022-10-24T05:29:49.643Z,1006.833313
2022-10-24T05:31:52.639Z,1006.937012
2022-10-24T05:32:48.536Z,1006.889893
2022-10-24T05:33:51.713Z,1006.862793
2022-10-24T05:34:48.373Z,1006.940308
2022-10-24T05:35:51.857Z,1006.912415
2022-10-24T05:36:47.030Z,1006.874146
2022-10-24T05:37:47.581Z,1006.854004
2022-10-24T05:38:43.770Z,1006.87738
2022-10-24T05:39:49.706Z,1006.885437
2022-10-24T05:41:46.284Z,1006.874146
2022-10-24T05:42:41.253Z,1006.781677
2022-10-24T05:43:41.032Z,1006.88623
2022-10-24T05:44:39.007Z,1006.932495
2022-10-24T05:46:38.701Z,1006.881104
2022-10-24T05:47:31.534Z,1006.815063
2022-10-24T05:48:38.306Z,1006.830872
2022-10-24T05:49:32.492Z,1006.880371
2022-10-24T05:50:35.271Z,1006.846008
2022-10-24T05:51:29.525Z,1006.946289
2022-10-24T05:52:44.586Z,1006.887878
2022-10-24T05:52:47.182Z,1006.887878
2022-10-24T05:53:43.823Z,1006.784119
2022-10-24T05:54:55.041Z,1006.87738
2022-10-24T05:55:02.465Z,1006.87738
2022-10-24T05:55:06.822Z,1006.87738
2022-10-24T05:55:42.624Z,1006.836609
2022-10-24T05:56:39.395Z,1006.923218
2022-10-24T05:57:41.152Z,1006.954163
2022-10-24T05:58:37.789Z,1006.955444
2022-10-24T05:59:43.181Z,1006.980652
2022-10-24T06:01:45.659Z,1007.045898
2022-10-24T06:03:40.479Z,1007.044128
2022-10-24T06:04:48.556Z,1007.055298
2022-10-24T06:05:48.725Z,1007.000366
2022-10-24T06:06:47.254Z,1006.937439
2022-10-24T06:07:50.395Z,1006.959473
2022-10-24T06:08:43.260Z,1006.92865
2022-10-24T06:09:46.772Z,1007.072083
2022-10-24T06:10:46.834Z,1006.98645
2022-10-24T06:11:48.106Z,1006.97821
2022-10-24T06:12:51.132Z,1006.935486
2022-10-24T06:13:45.775Z,1007.020386
2022-10-24T06:15:29.544Z,1007.103455
2022-10-24T06:16:16.624Z,1007.089294
2022-10-24T06:17:14.666Z,1006.993469
2022-10-24T06:18:14.282Z,1007.035217
2022-10-24T06:19:12.565Z,1007.111023
2022-10-24T06:20:07.722Z,1007.033752
2022-10-24T06:21:07.387Z,1007.083984
2022-10-24T06:22:02.724Z,1007.09906
2022-10-24T06:23:00.992Z,1007.047974
2022-10-24T06:23:57.410Z,1007.051941
2022-10-24T06:24:56.562Z,1007.005188
2022-10-24T06:26:54.258Z,1007.059326
2022-10-24T06:27:51.555Z,1007.135925
2022-10-24T06:28:45.978Z,1007.120178
2022-10-24T06:29:47.309Z,1007.139832
2022-10-24T06:30:42.709Z,1007.099487
2022-10-24T06:31:45.274Z,1007.198669
2022-10-24T06:32:43.630Z,1007.113159
2022-10-24T06:33:40.633Z,1007.202209
2022-10-24T06:34:39.791Z,1007.052246
2022-10-24T06:35:48.536Z,1007.21106
2022-10-24T06:36:46.653Z,1007.122009
2022-10-24T06:37:48.739Z,1007.225769
2022-10-24T06:38:50.767Z,1007.263916
2022-10-24T06:39:51.168Z,1007.0896
2022-10-24T06:41:57.390Z,1007.274292
2022-10-24T06:42:49.666Z,1007.227966
2022-10-24T06:43:52.808Z,1007.189697
2022-10-24T06:44:48.350Z,1007.278687
2022-10-24T06:45:48.848Z,1007.310242
2022-10-24T06:46:43.145Z,1007.371948
2022-10-24T06:47:44.650Z,1007.317017
2022-10-24T06:48:41.005Z,1007.343994
2022-10-24T06:49:40.822Z,1007.381714
2022-10-24T06:50:42.087Z,1007.339539
2022-10-24T06:51:36.773Z,1007.338928
2022-10-24T06:53:35.940Z,1007.403503
2022-10-24T06:54:05.280Z,1007.374695
2022-10-24T06:55:07.984Z,1007.412598
2022-10-24T06:56:08.404Z,1007.420898
2022-10-24T06:57:07.584Z,1007.461731
2022-10-24T06:58:09.768Z,1007.317749
2022-10-24T06:59:06.172Z,1007.424866
2022-10-24T07:00:05.863Z,1007.420349
2022-10-24T07:01:15.420Z,1007.392212
2022-10-24T07:02:17.861Z,1007.438477
2022-10-24T07:03:21.738Z,1007.49939
2022-10-24T07:04:16.748Z,1007.383362
2022-10-24T07:05:18.214Z,1007.503784
2022-10-24T07:06:13.666Z,1007.618713
2022-10-24T07:07:14.273Z,1007.525146
2022-10-24T07:08:25.077Z,1007.618713
2022-10-24T07:09:25.203Z,1007.602966
2022-10-24T07:10:20.864Z,1007.553406
2022-10-24T07:11:20.055Z,1007.630859
2022-10-24T07:13:18.815Z,1007.70752
2022-10-24T07:14:14.057Z,1007.623108
2022-10-24T07:15:17.038Z,1007.689392
2022-10-24T07:16:15.303Z,1007.652222
2022-10-24T07:17:12.681Z,1007.548584
2022-10-24T07:18:14.356Z,1007.579041
2022-10-24T07:19:09.796Z,1007.632996
2022-10-24T07:21:08.086Z,1007.516052
2022-10-24T07:22:23.438Z,1007.555481
2022-10-24T07:23:22.153Z,1007.616394
2022-10-24T07:24:21.903Z,1007.593811
2022-10-24T07:26:26.654Z,1007.684631
2022-10-24T07:27:26.779Z,1007.704834
2022-10-24T07:28:29.114Z,1007.628235
2022-10-24T07:29:23.495Z,1007.802368
2022-10-24T07:31:35.629Z,1007.745178
2022-10-24T07:32:31.508Z,1007.775391
2022-10-24T07:33:34.258Z,1007.756653
2022-10-24T07:34:34.756Z,1007.763977
2022-10-24T07:35:30.084Z,1007.89624
2022-10-24T07:36:31.976Z,1007.830811
2022-10-24T07:38:26.994Z,1007.858398
2022-10-24T07:39:23.256Z,1007.804321
2022-10-24T07:41:24.343Z,1007.869751
2022-10-24T07:42:17.170Z,1007.900085
2022-10-24T07:43:20.133Z,1007.915894
2022-10-24T07:45:30.672Z,1007.903259
2022-10-24T07:46:49.848Z,1007.765564
2022-10-24T07:47:45.633Z,1007.817261
2022-10-24T07:48:43.001Z,1007.893127
2022-10-24T07:49:45.833Z,1007.868469
2022-10-24T07:51:42.309Z,1007.913147
2022-10-24T07:52:36.603Z,1007.892944
2022-10-24T07:53:35.602Z,1007.931152
2022-10-24T07:54:36.154Z,1007.891968
2022-10-24T07:54:37.600Z,1007.891968
2022-10-24T07:56:46.213Z,1007.951477
2022-10-24T07:57:45.011Z,1007.85968
2022-10-24T07:58:39.892Z,1007.949585
2022-10-24T07:59:42.478Z,1007.922485
2022-10-24T08:01:41.952Z,1007.913025
2022-10-24T08:02:42.503Z,1007.963257
2022-10-24T08:03:45.321Z,1007.897339
2022-10-24T08:04:48.306Z,1007.93866
2022-10-24T08:05:43.515Z,1007.93866
2022-10-24T08:06:42.432Z,1007.958252
2022-10-24T08:07:48.648Z,1007.950562
2022-10-24T08:07:56.328Z,1007.950562
2022-10-24T08:08:48.152Z,1007.842407
2022-10-24T08:09:45.820Z,1007.838806
2022-10-24T08:10:46.824Z,1007.908691
2022-10-24T08:11:42.371Z,1007.865845
2022-10-24T08:12:42.447Z,1007.992676
2022-10-24T08:13:40.710Z,1007.98877
2022-10-24T08:14:40.308Z,1007.879578
2022-10-24T08:15:40.622Z,1007.868286
2022-10-24T08:16:45.158Z,1008.006958
2022-10-24T08:17:39.852Z,1007.860413
2022-10-24T08:18:38.689Z,1007.984375
2022-10-24T08:18:39.938Z,1007.984375
2022-10-24T08:19:34.727Z,1007.87262
2022-10-24T08:20:30.004Z,1007.896484
2022-10-24T08:21:32.611Z,1007.93866
2022-10-24T08:22:27.780Z,1007.958252
2022-10-24T08:23:37.943Z,1007.9776
2022-10-24T08:24:31.846Z,1007.98877
2022-10-24T08:26:31.579Z,1007.980957
2022-10-24T08:27:26.263Z,1007.931152
2022-10-24T08:28:27.961Z,1007.943115
2022-10-24T08:29:24.342Z,1007.904846
2022-10-24T08:30:25.919Z,1007.935669
2022-10-24T08:31:20.260Z,1007.931152
2022-10-24T08:32:19.241Z,1007.965088
2022-10-24T08:33:19.556Z,1007.77948
2022-10-24T08:34:16.096Z,1008.019226
2022-10-24T08:36:11.694Z,1007.93811
2022-10-24T08:37:13.030Z,1008.031677
2022-10-24T08:38:08.682Z,1007.876282
2022-10-24T08:39:05.915Z,1008.023743
2022-10-24T08:40:42.603Z,1007.923523
2022-10-24T08:41:20.723Z,1008.012329
2022-10-24T08:42:16.363Z,1008.006042
2022-10-24T08:43:16.137Z,1007.818237
2022-10-24T08:44:16.450Z,1007.949585
2022-10-24T08:45:12.985Z,1007.834045
2022-10-24T08:46:13.407Z,1007.964722
2022-10-24T08:47:13.379Z,1007.987427
2022-10-24T08:48:09.875Z,1007.989807
2022-10-24T08:49:15.146Z,1008.05127
2022-10-24T08:50:10.813Z,1008.008545
2022-10-24T08:51:13.653Z,1008.067017
2022-10-24T08:52:11.766Z,1008.048279
2022-10-24T08:53:09.781Z,1007.985901
2022-10-24T08:54:10.712Z,1008.100952
2022-10-24T08:55:07.272Z,1008.043762
2022-10-24T08:56:08.549Z,1008.116638
2022-10-24T08:57:07.708Z,1008.182007
2022-10-24T08:58:03.013Z,1008.008545
2022-10-24T08:59:07.484Z,1008.113647
2022-10-24T09:01:13.029Z,1008.121155
2022-10-24T09:02:12.631Z,1008.125549
2022-10-24T09:03:13.033Z,1008.179565
2022-10-24T09:04:08.419Z,1008.148132
2022-10-24T09:05:08.327Z,1008.16394
2022-10-24T09:06:05.090Z,1008.118103
2022-10-24T09:07:05.843Z,1008.179565
2022-10-24T09:08:06.821Z,1008.229248
2022-10-24T09:09:10.041Z,1008.229248
2022-10-24T09:10:06.225Z,1008.183411
2022-10-24T09:11:07.007Z,1008.256287
2022-10-24T09:12:03.675Z,1008.321655
2022-10-24T09:13:03.693Z,1008.224792
2022-10-24T09:14:01.932Z,1008.197815
2022-10-24T09:14:57.403Z,1008.244324
2022-10-24T09:15:58.747Z,1008.267578
2022-10-24T09:16:56.953Z,1008.239929
2022-10-24T09:17:57.523Z,1008.192688
2022-10-24T09:18:56.923Z,1008.119568
2022-10-24T09:20:00.173Z,1008.180481
2022-10-24T09:20:08.923Z,1008.210815
2022-10-24T09:21:04.972Z,1008.304321
2022-10-24T09:22:18.289Z,1008.297546
2022-10-24T09:23:30.376Z,1008.246765
2022-10-24T09:24:25.970Z,1008.273804
2022-10-24T09:26:25.143Z,1008.320129
2022-10-24T09:27:58.348Z,1008.359436
2022-10-24T09:28:35.357Z,1008.356079
2022-10-24T09:29:33.997Z,1008.276489
2022-10-24T09:30:33.516Z,1008.280945
2022-10-24T09:31:33.156Z,1008.343994
2022-10-24T09:32:32.350Z,1008.336426
2022-10-24T09:33:32.768Z,1008.303528
2022-10-24T09:34:32.190Z,1008.275818
2022-10-24T09:36:28.362Z,1008.310425
2022-10-24T09:37:24.182Z,1008.275818
2022-10-24T09:38:24.703Z,1008.325562
2022-10-24T09:39:19.931Z,1008.356079
2022-10-24T09:40:24.899Z,1008.371216
2022-10-24T09:41:23.448Z,1008.414001
2022-10-24T09:42:19.626Z,1008.336792
2022-10-24T09:43:20.933Z,1008.370667
2022-10-24T09:44:17.320Z,1008.490051
2022-10-24T09:45:19.838Z,1008.498047
2022-10-24T09:46:14.067Z,1008.40564
2022-10-24T09:48:17.124Z,1008.503479
2022-10-24T09:49:12.649Z,1008.526733
2022-10-24T09:50:12.947Z,1008.589111
2022-10-24T09:51:07.650Z,1008.582214
2022-10-24T09:52:07.163Z,1008.578369
2022-10-24T09:53:03.236Z,1008.66095
2022-10-24T09:54:04.012Z,1008.707642
2022-10-24T09:55:01.042Z,1008.677368
2022-10-24T09:56:01.751Z,1008.708801
2022-10-24T09:56:58.141Z,1008.662537
2022-10-24T09:58:02.746Z,1008.705261
2022-10-24T09:58:58.385Z,1008.686218
2022-10-24T10:00:00.501Z,1008.636536
2022-10-24T10:00:53.994Z,1008.63208
2022-10-24T10:01:53.505Z,1008.644348
2022-10-24T10:02:50.707Z,1008.726624
2022-10-24T10:03:56.109Z,1008.723083
2022-10-24T10:05:31.257Z,1008.646912
2022-10-24T10:07:51.447Z,1008.579529
2022-10-24T10:08:39.141Z,1008.612305
2022-10-24T10:09:36.286Z,1008.798584
2022-10-24T10:10:36.459Z,1008.684021
2022-10-24T10:11:35.500Z,1008.631775
2022-10-24T10:11:40.816Z,1008.631775
2022-10-24T10:11:49.301Z,1008.631775
2022-10-24T10:12:31.958Z,1008.765869
2022-10-24T10:13:30.840Z,1008.819458
2022-10-24T10:14:32.149Z,1008.829956
2022-10-24T10:15:27.465Z,1008.712769
2022-10-24T10:16:25.845Z,1008.828003
2022-10-24T10:17:26.457Z,1008.80426
2022-10-24T10:18:25.112Z,1008.765076
2022-10-24T10:19:24.345Z,1008.873352
2022-10-24T10:20:22.994Z,1008.923035
2022-10-24T10:21:16.568Z,1008.891418
2022-10-24T10:22:22.780Z,1008.891418
2022-10-24T10:23:19.072Z,1008.891418
2022-10-24T10:24:17.984Z,1008.848083
2022-10-24T10:26:20.853Z,1008.86615
2022-10-24T10:27:19.036Z,1008.777405
2022-10-24T10:28:19.694Z,1008.957825
2022-10-24T10:29:14.852Z,1008.84613
2022-10-24T10:30:16.896Z,1008.854065
2022-10-24T10:31:11.336Z,1008.888855
2022-10-24T10:32:11.637Z,1008.838379
2022-10-24T10:33:10.143Z,1008.954407
2022-10-24T10:34:16.078Z,1008.881165
2022-10-24T10:34:21.255Z,1008.881165
2022-10-24T10:36:05.521Z,1008.979553
2022-10-24T10:37:16.678Z,1008.983948
2022-10-24T10:38:10.820Z,1008.960754
2022-10-24T10:39:05.937Z,1009.03363
2022-10-24T10:40:02.467Z,1009.014771
2022-10-24T10:41:00.682Z,1009.064453
2022-10-24T10:42:42.967Z,1008.992737
2022-10-24T10:43:38.614Z,1009.040955
2022-10-24T10:44:38.264Z,1009.007019
2022-10-24T10:45:32.273Z,1009.056641
2022-10-24T10:47:17.520Z,1008.984375
2022-10-24T10:48:00.240Z,1009.112854
2022-10-24T10:48:57.732Z,1009.146851
2022-10-24T10:49:58.689Z,1009.060242
2022-10-24T10:50:58.074Z,1009.078552
2022-10-24T10:51:57.820Z,1009.00415
2022-10-24T10:52:53.143Z,1009.107971
2022-10-24T10:53:51.923Z,1009.092224
2022-10-24T10:54:50.904Z,1009.126221
2022-10-24T10:56:53.072Z,1009.156189
2022-10-24T10:57:53.021Z,1009.156189
2022-10-24T10:58:48.193Z,1009.252441
2022-10-24T10:59:47.376Z,1009.16394
2022-10-24T11:00:42.753Z,1009.129211
2022-10-24T11:01:47.428Z,1009.078979
2022-10-24T11:02:39.873Z,1009.187134
2022-10-24T11:03:40.663Z,1009.202881
2022-10-24T11:04:38.334Z,1009.175903
2022-10-24T11:05:33.076Z,1009.207275
2022-10-24T11:06:32.026Z,1009.296875
2022-10-24T11:07:27.447Z,1009.237427
2022-10-24T11:08:28.558Z,1009.326233
2022-10-24T11:09:27.073Z,1009.32251
2022-10-24T11:11:24.510Z,1009.225525
2022-10-24T11:12:20.625Z,1009.32251
2022-10-24T11:13:22.256Z,1009.287903
2022-10-24T11:14:14.414Z,1009.33075
2022-10-24T11:15:14.243Z,1009.292419
2022-10-24T11:16:21.538Z,1009.292419
2022-10-24T11:17:14.310Z,1009.373474
2022-10-24T11:18:17.525Z,1009.299194
2022-10-24T11:19:09.922Z,1009.30658
2022-10-24T11:20:12.137Z,1009.315002
2022-10-24T11:21:05.532Z,1009.315002
2022-10-24T11:22:51.503Z,1009.375549
2022-10-24T11:23:31.220Z,1009.303345
2022-10-24T11:24:28.484Z,1009.389526
2022-10-24T11:25:29.122Z,1009.389526
2022-10-24T11:26:26.840Z,1009.337769
2022-10-24T11:27:21.982Z,1009.287476
2022-10-24T11:28:21.810Z,1009.333313
2022-10-24T11:29:16.183Z,1009.328918
2022-10-24T11:30:16.160Z,1009.328918
2022-10-24T11:31:10.980Z,1009.37854
2022-10-24T11:32:10.926Z,1009.34021
2022-10-24T11:33:07.277Z,1009.324463
2022-10-24T11:34:11.861Z,1009.390015
2022-10-24T11:35:05.229Z,1009.416321
2022-10-24T11:36:09.887Z,1009.486206
2022-10-24T11:37:05.032Z,1009.430664
2022-10-24T11:38:07.303Z,1009.437988
2022-10-24T11:39:01.693Z,1009.434509
2022-10-24T11:40:00.912Z,1009.430664
2022-10-24T11:40:58.804Z,1009.403625
2022-10-24T11:42:02.684Z,1009.40802
2022-10-24T11:42:59.868Z,1009.385498
2022-10-24T11:44:00.869Z,1009.436462
2022-10-24T11:44:57.231Z,1009.482361
2022-10-24T11:46:00.128Z,1009.452393
2022-10-24T11:46:53.647Z,1009.504944
2022-10-24T11:47:53.277Z,1009.430664
2022-10-24T11:48:52.844Z,1009.383911
2022-10-24T11:49:51.715Z,1009.554077
2022-10-24T11:51:45.912Z,1009.495422
2022-10-24T11:52:43.343Z,1009.526123
2022-10-24T11:53:41.992Z,1009.560913
2022-10-24T11:54:42.465Z,1009.607239
2022-10-24T11:56:45.387Z,1009.475281
2022-10-24T11:57:37.298Z,1009.553101
2022-10-24T11:58:39.954Z,1009.596008
2022-10-24T11:59:38.537Z,1009.546265
2022-10-24T11:59:43.280Z,1009.546265
2022-10-24T12:00:42.608Z,1009.558472
2022-10-24T12:01:40.637Z,1009.61261
2022-10-24T12:03:17.548Z,1009.58374
2022-10-24T12:07:08.504Z,1009.575012
2022-10-24T12:07:14.846Z,1009.577576
2022-10-24T12:08:15.840Z,1009.617859
2022-10-24T12:09:12.240Z,1009.56958
2022-10-24T12:10:14.227Z,1009.576904
2022-10-24T12:11:14.395Z,1009.710876
2022-10-24T12:12:13.730Z,1009.663147
2022-10-24T12:13:14.873Z,1009.736084
2022-10-24T12:14:11.360Z,1009.619324
2022-10-24T12:15:14.742Z,1009.629578
2022-10-24T12:17:10.403Z,1009.646851
2022-10-24T12:18:06.488Z,1009.623657
2022-10-24T12:19:06.305Z,1009.65155
2022-10-24T12:20:02.483Z,1009.647217
2022-10-24T12:21:05.803Z,1009.623901
2022-10-24T12:22:01.067Z,1009.705139
2022-10-24T12:22:59.433Z,1009.67804
2022-10-24T12:23:53.919Z,1009.65448
2022-10-24T12:24:59.403Z,1009.638733
2022-10-24T12:25:56.486Z,1009.677063
2022-10-24T12:26:56.869Z,1009.648804
2022-10-24T12:27:51.315Z,1009.776428
2022-10-24T12:28:51.354Z,1009.752686
2022-10-24T12:29:45.816Z,1009.736816
2022-10-24T12:30:45.045Z,1009.666992
2022-10-24T12:31:39.447Z,1009.64679
2022-10-24T12:32:36.978Z,1009.747253
2022-10-24T12:33:36.564Z,1009.719543
2022-10-24T12:34:32.862Z,1009.726929
2022-10-24T12:35:32.252Z,1009.722473
2022-10-24T12:36:28.409Z,1009.702271
2022-10-24T12:37:26.260Z,1009.721497
2022-10-24T12:38:26.320Z,1009.729248
2022-10-24T12:39:17.904Z,1009.690918
2022-10-24T12:40:15.563Z,1009.753296
2022-10-24T12:42:10.845Z,1009.807434
2022-10-24T12:43:14.451Z,1009.726318
2022-10-24T12:44:07.063Z,1009.726318
2022-10-24T12:45:04.547Z,1009.796143
2022-10-24T12:46:51.195Z,1009.843445
2022-10-24T12:47:35.796Z,1009.767456
2022-10-24T12:48:34.581Z,1009.787598
2022-10-24T12:49:36.915Z,1009.798889
2022-10-24T12:50:33.721Z,1009.775208
2022-10-24T12:51:36.132Z,1009.797668
2022-10-24T12:52:32.524Z,1009.817017
2022-10-24T12:53:38.974Z,1009.820862
2022-10-24T12:54:35.686Z,1009.832031
2022-10-24T12:55:39.401Z,1009.773499
2022-10-24T12:56:46.919Z,1009.73822
2022-10-24T12:57:37.687Z,1009.777954
2022-10-24T12:58:40.300Z,1009.740295
2022-10-24T12:59:45.177Z,1009.678223
2022-10-24T13:00:44.248Z,1009.635437
2022-10-24T13:01:44.769Z,1009.646667
2022-10-24T13:02:42.119Z,1009.577393
2022-10-24T13:03:43.306Z,1009.534607
2022-10-24T13:05:44.197Z,1009.595398
2022-10-24T13:06:45.484Z,1009.49408
2022-10-24T13:07:48.431Z,1009.528564
2022-10-24T13:07:50.980Z,1009.528564
2022-10-24T13:08:46.597Z,1009.496704
2022-10-24T13:09:52.621Z,1009.559204
2022-10-24T13:11:54.612Z,1009.543396
2022-10-24T13:12:48.395Z,1009.546387
2022-10-24T13:13:55.019Z,1009.568848
2022-10-24T13:14:48.508Z,1009.433716
2022-10-24T13:15:52.461Z,1009.593018
2022-10-24T13:16:46.284Z,1009.526672
2022-10-24T13:17:51.576Z,1009.439941
2022-10-24T13:18:46.797Z,1009.373413
2022-10-24T13:19:50.214Z,1009.443481
2022-10-24T13:20:47.922Z,1009.453491
2022-10-24T13:21:49.274Z,1009.488464
2022-10-24T13:22:49.226Z,1009.449036
2022-10-24T13:23:53.993Z,1009.460876
2022-10-24T13:24:52.338Z,1009.463806
2022-10-24T13:25:54.607Z,1009.328613
2022-10-24T13:26:57.367Z,1009.398499
2022-10-24T13:27:58.731Z,1009.340881
2022-10-24T13:28:59.405Z,1009.352661
2022-10-24T13:30:04.953Z,1009.317383
2022-10-24T13:30:59.318Z,1009.437744
2022-10-24T13:32:03.704Z,1009.283447
2022-10-24T13:33:14.459Z,1009.298645
2022-10-24T13:34:15.801Z,1009.236206
2022-10-24T13:35:39.998Z,1009.271484
2022-10-24T13:36:28.682Z,1009.280029
2022-10-24T13:37:27.975Z,1009.18866
2022-10-24T13:38:27.707Z,1009.274292
2022-10-24T13:39:23.680Z,1009.178467
2022-10-24T13:40:24.337Z,1009.232483
2022-10-24T13:41:24.380Z,1009.356323
2022-10-24T13:42:24.086Z,1009.294556
2022-10-24T13:43:19.284Z,1009.399231
2022-10-24T13:44:20.533Z,1009.411255
2022-10-24T13:45:15.812Z,1009.384155
2022-10-24T13:46:18.862Z,1009.345825
2022-10-24T13:47:11.523Z,1009.408264
2022-10-24T13:48:16.534Z,1009.447449
2022-10-24T13:49:09.877Z,1009.35199
2022-10-24T13:50:14.034Z,1009.394897
2022-10-24T13:52:17.773Z,1009.35199
2022-10-24T13:53:14.440Z,1009.456421
2022-10-24T13:54:14.507Z,1009.383545
2022-10-24T13:55:14.800Z,1009.375183